Eugene, OR

7:16 AM PDT on September 05, 2015 (GMT -0700)
North Eugene | | Change Station
CLOSE
Current Station
Personal Weather Station
Location: Eugene, OR
Elevation: 420 ft
Nearby Weather Stations

Elev 420 ft 44.09 °N, 123.07 °W | Updated 1 minute ago

Partly Cloudy
Partly Cloudy
47.3 °F
Feels Like 47 °F
N
2.0
Wind Variable Wind from SE
Gusts 4.0 mph

Today
High -- | Low -- °F
--% Chance of Precip.
Yesterday
High -- | Low -- °F
Precip. -- in
6:39 AM 7:41 PM
Waning Gibbous, 48% visible
Pressure 30.14 in
Visibility 7.0 miles
Clouds Few 100 ft
Few 6000 ft
Windchill 47 °F
Dew Point 33 °F
Humidity 58%
Rainfall 0.00 in
Snow Depth Not available.
UV 0 out of 12
Pollen 2.60 out of 12
Air Quality Not available.
Flu Activity Not available.
METAR KEUG 051354Z 20005KT 7SM BCFG FEW001 FEW060 06/04 A3014 RMK AO2 SLP206 FG FEW001 FG BANK NW T00560044
Pressure 30.14 in
Visibility 7.0 miles
Clouds Few 100 ft
Few 6000 ft
Windchill 47 °F
Dew Point 33 °F
Humidity 58%
Rainfall 0.00 in
Snow Depth Not available.
UV 0 out of 12
Pollen 2.60 out of 12
Air Quality Not available.
Flu Activity Not available.
METAR KEUG 051354Z 20005KT 7SM BCFG FEW001 FEW060 06/04 A3014 RMK AO2 SLP206 FG FEW001 FG BANK NW T00560044

10-Day Weather Forecast

×

Almanac

Astronomy

Sep. 05, 2015 Rise Set
Actual Time
Civil Twilight
Nautical Twilight
Astronomical Twilight
Moon
Length of Visible Light
Length of Day
Tomorrow will be .
, % of the Moon is Illuminated

Today's Extremes

State Highs State Lows

Community

WunderPhotos

Upload Photos

1,852,472 photos uploaded!

WunderBlogs® & News

Nearby

Air Quality

  Air Quality AQ Index Pollutant
Not available.

Snow Depth

Station Depth Elevation

Earthquake Activity

City Distance Mag. Time & Date
Minimum magnitude displayed is 2.5.

Coastal Water Temperatures

Place Temperature

Stations

Nearby Weather Stations

Station Location Temp. Windchill Dew Point Humidity Wind Precip. Elev Updated Type